Time;durP1;ratioP1;P1;durP2;ratioP2;P2;SDS_P1;SDS_P2;PMS_P1;PMS_P2;Temp;Humidity;BMP_temperature;BMP_pressure;BME280_temperature;BME280_humidity;BME280_pressure;Samples;Min_cycle;Max_cycle;Signal;HPM_P1;HPM_P2
2023/07/03 00:02:08;;;;;;;23.87;5.87;;;16.30;1.00;;;;;;5073875;28;20196;-82
2023/07/03 00:04:35;;;;;;;16.87;5.07;;;16.10;1.00;;;;;;5073949;28;20215;-83
2023/07/03 00:07:02;;;;;;;15.83;4.97;;;16.10;1.00;;;;;;5072713;28;20187;-84
2023/07/03 00:09:29;;;;;;;16.73;4.90;;;16.00;1.00;;;;;;5074149;28;20644;-82
2023/07/03 00:11:54;;;;;;;22.43;6.37;;;16.10;1.00;;;;;;5072629;28;20567;-83
2023/07/03 00:14:20;;;;;;;21.47;5.13;;;16.20;1.00;;;;;;5073933;28;20171;-82
2023/07/03 00:16:46;;;;;;;19.87;5.63;;;16.10;1.00;;;;;;5073209;28;20556;-83
2023/07/03 00:19:13;;;;;;;18.47;5.13;;;16.20;1.00;;;;;;5071692;28;20180;-82
2023/07/03 00:21:43;;;;;;;17.30;4.83;;;16.20;1.00;;;;;;5072637;28;20198;-84
2023/07/03 00:24:10;;;;;;;21.23;5.87;;;16.20;1.00;;;;;;5073512;28;20160;-81
2023/07/03 00:26:37;;;;;;;17.90;5.77;;;16.10;1.00;;;;;;5073622;28;20219;-83
2023/07/03 00:29:03;;;;;;;20.47;5.43;;;16.10;1.00;;;;;;5073215;28;20164;-82
2023/07/03 00:31:28;;;;;;;18.43;5.33;;;16.20;1.00;;;;;;5072389;28;20179;-84
2023/07/03 00:33:54;;;;;;;19.03;5.40;;;16.10;1.00;;;;;;5071672;28;20189;-82
2023/07/03 00:36:20;;;;;;;17.93;5.90;;;16.10;1.00;;;;;;5073930;28;20259;-83
2023/07/03 00:38:46;;;;;;;16.30;5.40;;;16.20;1.00;;;;;;5073848;28;20175;-83
2023/07/03 00:41:11;;;;;;;18.83;5.37;;;16.20;1.00;;;;;;5071765;28;20173;-82
2023/07/03 00:43:41;;;;;;;20.23;5.57;;;16.20;1.00;;;;;;5072283;28;20199;-84
2023/07/03 00:46:09;;;;;;;21.53;5.70;;;16.20;1.00;;;;;;5073574;28;20229;-84
2023/07/03 00:48:36;;;;;;;20.03;5.37;;;16.10;1.00;;;;;;5071850;28;20179;-83
2023/07/03 00:51:02;;;;;;;20.37;6.00;;;16.10;1.00;;;;;;5073099;28;20243;-82
2023/07/03 00:53:28;;;;;;;20.03;5.37;;;16.10;1.00;;;;;;5072307;28;20180;-84
2023/07/03 00:55:54;;;;;;;20.87;5.90;;;16.00;1.00;;;;;;5073187;28;20168;-83
2023/07/03 00:58:19;;;;;;;22.80;6.30;;;16.10;1.00;;;;;;5071719;28;20172;-83
2023/07/03 01:01:24;;;;;;;14.50;4.33;;;16.00;1.00;;;;;;5071537;28;20170;-81
2023/07/03 01:04:03;;;;;;;21.87;5.57;;;16.00;1.00;;;;;;5067621;28;20230;-82
2023/07/03 01:06:46;;;;;;;23.17;5.90;;;15.90;2.20;;;;;;5090938;28;20227;-82
2023/07/03 01:09:14;;;;;;;16.33;5.17;;;15.90;5.80;;;;;;5093081;28;20187;-80
2023/07/03 01:11:43;;;;;;;20.13;5.87;;;15.80;8.60;;;;;;5085649;28;20219;-82
2023/07/03 01:14:10;;;;;;;17.63;5.87;;;15.90;10.20;;;;;;5078786;28;20164;-82
2023/07/03 01:16:39;;;;;;;18.17;5.27;;;15.90;12.20;;;;;;5073400;28;20501;-82
2023/07/03 01:19:12;;;;;;;15.53;5.47;;;15.80;13.30;;;;;;5072404;28;20172;-82
2023/07/03 01:21:55;;;;;;;19.87;6.23;;;15.80;15.00;;;;;;5073412;28;20217;-82
2023/07/03 01:24:47;;;;;;;24.93;6.33;;;16.00;14.10;;;;;;5073458;28;20255;-82
2023/07/03 01:27:18;;;;;;;17.07;6.10;;;15.90;14.60;;;;;;5073095;28;20632;-80
2023/07/03 01:29:46;;;;;;;20.50;5.63;;;15.80;18.90;;;;;;5088569;28;20182;-83
2023/07/03 01:32:14;;;;;;;16.73;5.83;;;15.90;18.00;;;;;;5100214;28;20180;-84
2023/07/03 01:34:43;;;;;;;19.40;6.23;;;16.00;15.70;;;;;;5093588;28;20204;-82
2023/07/03 01:37:10;;;;;;;18.10;6.53;;;15.90;16.10;;;;;;5091585;28;20165;-82
2023/07/03 01:39:36;;;;;;;20.20;5.63;;;15.90;18.80;;;;;;5079113;28;20537;-83
2023/07/03 01:42:08;;;;;;;21.90;6.63;;;16.00;18.00;;;;;;5076826;28;20189;-83
2023/07/03 01:44:34;;;;;;;21.03;6.33;;;15.90;20.50;;;;;;5075511;28;20191;-82
2023/07/03 01:47:08;;;;;;;22.33;6.50;;;15.90;19.90;;;;;;5074957;28;20204;-83
2023/07/03 01:49:33;;;;;;;19.77;5.03;;;15.90;23.00;;;;;;5074557;28;20259;-81
2023/07/03 01:52:23;;;;;;;17.93;5.90;;;15.90;23.60;;;;;;5075526;28;20264;-82
2023/07/03 01:54:51;;;;;;;17.40;5.93;;;15.80;28.50;;;;;;5075315;28;20192;-84
2023/07/03 01:57:48;;;;;;;19.63;6.77;;;15.90;26.40;;;;;;5074881;28;20172;-83
2023/07/03 02:00:20;;;;;;;16.97;6.13;;;15.80;29.30;;;;;;5037093;28;20186;-83
2023/07/03 02:02:48;;;;;;;22.13;6.00;;;15.80;30.90;;;;;;5075037;28;20243;-82
2023/07/03 02:05:27;;;;;;;21.50;6.47;;;15.90;27.50;;;;;;5074790;28;20595;-82
2023/07/03 02:07:58;;;;;;;21.43;6.23;;;15.90;29.10;;;;;;5074779;28;20212;-83
2023/07/03 02:10:24;;;;;;;18.17;6.00;;;15.80;30.50;;;;;;5074841;28;20204;-82
2023/07/03 02:12:49;;;;;;;18.20;6.03;;;15.90;32.10;;;;;;5076167;28;20251;-82
2023/07/03 02:15:16;;;;;;;17.63;6.03;;;15.90;30.10;;;;;;5076203;28;20185;-82
2023/07/03 02:17:43;;;;;;;20.40;6.23;;;15.80;33.30;;;;;;5074900;28;20176;-81
2023/07/03 02:20:14;;;;;;;20.97;6.17;;;15.90;34.10;;;;;;5074295;28;20171;-82
2023/07/03 02:22:41;;;;;;;24.37;6.93;;;15.80;37.30;;;;;;5075503;28;20215;-82
2023/07/03 02:25:08;;;;;;;20.87;6.43;;;15.80;39.50;;;;;;5075842;28;20527;-82
2023/07/03 02:27:33;;;;;;;24.47;6.60;;;15.80;42.20;;;;;;5073300;28;20185;-82
2023/07/03 02:29:59;;;;;;;29.10;7.33;;;15.80;44.80;;;;;;5074874;28;20164;-81
2023/07/03 02:32:36;;;;;;;25.00;6.80;;;15.80;42.70;;;;;;5085917;28;20551;-82
2023/07/03 02:35:03;;;;;;;16.10;5.90;;;15.80;44.80;;;;;;5095758;28;20172;-82
2023/07/03 02:37:32;;;;;;;23.33;8.50;;;15.80;44.70;;;;;;5093516;28;20190;-83
2023/07/03 02:39:57;;;;;;;23.40;6.73;;;15.80;47.60;;;;;;5096079;28;20509;-82
2023/07/03 02:42:23;;;;;;;26.77;7.50;;;15.80;46.50;;;;;;5093748;28;20694;-81
2023/07/03 02:44:49;;;;;;;25.07;7.23;;;15.80;45.50;;;;;;5095911;28;20169;-83
2023/07/03 02:47:15;;;;;;;22.63;6.43;;;15.80;47.40;;;;;;5094468;28;20218;-83
2023/07/03 02:49:42;;;;;;;19.70;6.63;;;15.80;49.00;;;;;;5094706;28;20203;-82
2023/07/03 02:52:07;;;;;;;20.43;6.57;;;15.70;52.30;;;;;;5095859;28;20186;-82
2023/07/03 02:54:33;;;;;;;25.70;7.67;;;15.70;55.10;;;;;;5094151;28;20620;-81
2023/07/03 02:56:59;;;;;;;26.40;7.33;;;16.00;51.70;;;;;;5094185;28;20168;-82
2023/07/03 02:59:24;;;;;;;24.03;7.20;;;15.80;51.50;;;;;;5094323;28;20176;-83
2023/07/03 03:01:50;;;;;;;20.37;6.33;;;15.70;55.00;;;;;;5094339;28;20210;-82
2023/07/03 03:04:16;;;;;;;23.83;6.70;;;15.70;56.40;;;;;;5095741;28;20220;-82
2023/07/03 03:06:43;;;;;;;18.10;6.00;;;15.70;57.10;;;;;;5094296;28;20172;-82
2023/07/03 03:09:09;;;;;;;19.20;7.57;;;15.70;57.90;;;;;;5093762;28;20188;-83
2023/07/03 03:11:38;;;;;;;20.17;6.80;;;15.70;57.80;;;;;;5095311;28;20187;-81
2023/07/03 03:14:03;;;;;;;19.00;7.00;;;15.70;58.20;;;;;;5094021;28;20206;-81
2023/07/03 03:16:31;;;;;;;24.70;6.80;;;15.70;60.80;;;;;;5094041;28;20297;-81
2023/07/03 03:18:56;;;;;;;19.40;6.90;;;15.70;59.50;;;;;;5094189;28;20164;-83
2023/07/03 03:21:22;;;;;;;21.57;7.53;;;15.70;58.10;;;;;;5093541;28;20175;-81
2023/07/03 03:23:48;;;;;;;20.07;6.87;;;15.60;59.40;;;;;;5093459;28;20172;-81
2023/07/03 03:26:13;;;;;;;19.40;6.40;;;15.70;57.60;;;;;;5095072;28;20190;-82
2023/07/03 03:28:39;;;;;;;18.60;7.17;;;15.80;55.70;;;;;;5093160;28;20172;-82
2023/07/03 03:31:05;;;;;;;26.13;7.60;;;15.80;56.20;;;;;;5093857;28;20173;-82
2023/07/03 03:33:31;;;;;;;21.17;7.30;;;15.90;52.00;;;;;;5094839;28;20164;-82
2023/07/03 03:35:56;;;;;;;17.00;6.53;;;15.90;52.20;;;;;;5095050;28;20566;-82
2023/07/03 03:38:22;;;;;;;17.47;6.60;;;15.80;54.80;;;;;;5092875;28;20703;-83
2023/07/03 03:40:56;;;;;;;23.23;6.97;;;15.90;56.80;;;;;;5095123;28;20177;-82
2023/07/03 03:43:22;;;;;;;21.17;6.37;;;15.70;59.60;;;;;;5092252;28;20206;-82
2023/07/03 03:45:55;;;;;;;18.37;6.90;;;15.70;58.70;;;;;;5094901;28;20164;-83
2023/07/03 03:48:21;;;;;;;20.97;6.30;;;15.80;58.40;;;;;;5093184;28;20182;-83
2023/07/03 03:50:48;;;;;;;19.30;7.30;;;15.80;56.70;;;;;;5092981;28;20181;-82
2023/07/03 03:53:13;;;;;;;22.20;7.43;;;15.80;58.30;;;;;;5092754;28;20227;-82
2023/07/03 03:55:39;;;;;;;20.33;6.80;;;15.80;56.10;;;;;;5093181;28;20172;-82
2023/07/03 03:58:05;;;;;;;21.40;7.20;;;15.80;56.30;;;;;;5094447;28;20258;-82
2023/07/03 04:00:30;;;;;;;22.73;8.00;;;15.70;59.70;;;;;;5094469;28;20163;-82
2023/07/03 04:02:56;;;;;;;21.17;6.67;;;15.80;60.70;;;;;;5093229;28;20663;-83
2023/07/03 04:05:22;;;;;;;16.83;7.40;;;15.80;58.90;;;;;;5093241;28;20178;-83
2023/07/03 04:07:48;;;;;;;21.00;6.63;;;15.80;58.40;;;;;;5094331;28;20176;-81
2023/07/03 04:10:13;;;;;;;18.93;7.00;;;15.80;61.00;;;;;;5093236;28;20171;-82
2023/07/03 04:12:39;;;;;;;22.47;6.93;;;15.80;59.20;;;;;;5093748;28;20176;-82
2023/07/03 04:15:05;;;;;;;19.27;6.97;;;15.80;58.90;;;;;;5094042;28;20164;-82
2023/07/03 04:17:31;;;;;;;23.33;7.47;;;15.70;63.00;;;;;;5092890;28;20167;-83
2023/07/03 04:19:57;;;;;;;23.07;7.73;;;15.40;65.90;;;;;;5094012;28;20216;-82
2023/07/03 04:22:23;;;;;;;20.13;6.23;;;15.80;61.00;;;;;;5092462;28;20567;-83
2023/07/03 04:24:48;;;;;;;20.50;7.43;;;15.80;59.70;;;;;;5093987;28;20238;-82
2023/07/03 04:27:14;;;;;;;20.67;7.47;;;15.80;62.70;;;;;;5092358;28;20224;-82
2023/07/03 04:29:41;;;;;;;19.90;7.53;;;15.80;58.10;;;;;;5095056;28;20167;-82
2023/07/03 04:32:07;;;;;;;22.53;7.07;;;15.80;60.70;;;;;;5117864;28;20179;-80
2023/07/03 04:34:33;;;;;;;17.40;6.40;;;15.90;58.80;;;;;;5109455;28;20170;-82
2023/07/03 04:36:58;;;;;;;19.37;7.40;;;15.90;56.30;;;;;;5102209;28;20194;-81
2023/07/03 04:39:29;;;;;;;20.60;7.60;;;16.00;55.10;;;;;;5095356;28;20171;-81
2023/07/03 04:42:00;;;;;;;19.23;7.00;;;16.10;55.10;;;;;;5093156;28;20203;-82
2023/07/03 04:44:29;;;;;;;19.13;6.80;;;16.10;51.50;;;;;;5092840;28;20171;-82
2023/07/03 04:46:58;;;;;;;16.50;6.37;;;16.10;51.70;;;;;;5093927;28;20171;-83
2023/07/03 04:49:29;;;;;;;17.30;6.83;;;16.00;51.10;;;;;;5094035;28;20250;-82
2023/07/03 04:51:55;;;;;;;21.10;7.23;;;16.10;52.10;;;;;;5097382;28;20411;-82
2023/07/03 04:54:22;;;;;;;16.20;6.10;;;16.10;50.10;;;;;;5112192;28;20182;-82
2023/07/03 04:56:48;;;;;;;21.63;6.40;;;16.00;52.30;;;;;;5112315;28;20176;-82
2023/07/03 04:59:15;;;;;;;16.00;6.73;;;16.10;52.60;;;;;;5105422;28;20176;-83
2023/07/03 05:01:43;;;;;;;20.80;6.50;;;16.10;51.20;;;;;;5110204;28;20203;-81
2023/07/03 05:04:12;;;;;;;18.73;7.53;;;15.90;53.20;;;;;;5096039;28;20171;-82
2023/07/03 05:06:39;;;;;;;21.87;7.73;;;16.00;50.40;;;;;;5092344;28;20703;-83
2023/07/03 05:09:05;;;;;;;18.53;6.83;;;16.10;48.30;;;;;;5092307;28;20627;-82
2023/07/03 05:11:33;;;;;;;18.73;6.63;;;16.20;48.20;;;;;;5096461;28;20286;-82
2023/07/03 05:13:59;;;;;;;19.83;6.53;;;16.30;42.60;;;;;;5092804;28;20262;-82
2023/07/03 05:16:25;;;;;;;22.40;7.10;;;16.40;39.70;;;;;;5093266;28;20195;-84
2023/07/03 05:18:51;;;;;;;17.80;6.83;;;16.40;38.20;;;;;;5093580;28;20176;-82
2023/07/03 05:21:17;;;;;;;20.00;7.30;;;16.50;33.50;;;;;;5091317;28;20522;-83
2023/07/03 05:23:43;;;;;;;18.17;6.67;;;16.60;32.50;;;;;;5093292;28;20214;-82
2023/07/03 05:26:08;;;;;;;19.60;6.63;;;16.60;31.10;;;;;;5092075;28;20668;-85
2023/07/03 05:28:36;;;;;;;18.63;6.90;;;16.70;29.80;;;;;;5091927;28;20185;-82
2023/07/03 05:31:02;;;;;;;19.60;6.63;;;16.70;29.60;;;;;;5094287;28;20643;-83
2023/07/03 05:33:29;;;;;;;19.87;6.47;;;16.80;27.40;;;;;;5092440;28;20566;-84
2023/07/03 05:35:59;;;;;;;19.13;7.37;;;16.90;22.80;;;;;;5092022;28;20190;-82
2023/07/03 05:38:25;;;;;;;18.80;6.83;;;16.80;23.70;;;;;;5093215;28;20195;-83
2023/07/03 05:40:53;;;;;;;16.30;7.17;;;16.80;24.90;;;;;;5091641;28;20272;-84
2023/07/03 05:43:19;;;;;;;22.70;7.40;;;16.90;23.90;;;;;;5091932;28;20210;-82
2023/07/03 05:45:47;;;;;;;21.77;7.03;;;16.90;22.80;;;;;;5071059;28;20198;-84
2023/07/03 05:48:14;;;;;;;19.40;7.03;;;16.80;28.70;;;;;;5071006;28;20173;-83
2023/07/03 05:50:40;;;;;;;19.50;7.07;;;16.70;34.60;;;;;;5076111;28;20168;-83
2023/07/03 05:53:09;;;;;;;20.50;7.27;;;16.70;37.00;;;;;;5073853;28;20173;-83
2023/07/03 05:55:35;;;;;;;17.63;6.73;;;16.70;38.20;;;;;;5084837;28;20209;-84
2023/07/03 05:58:00;;;;;;;19.57;7.47;;;16.70;39.10;;;;;;5094785;28;20181;-83
2023/07/03 06:00:30;;;;;;;20.70;7.93;;;16.70;37.00;;;;;;5094127;28;20171;-82
2023/07/03 06:02:57;;;;;;;15.13;7.30;;;16.70;42.40;;;;;;5091549;28;20222;-84
2023/07/03 06:05:23;;;;;;;21.50;8.27;;;16.60;46.30;;;;;;5112312;28;20180;-83
2023/07/03 06:07:49;;;;;;;22.17;9.07;;;16.60;46.50;;;;;;5078789;28;20184;-83
2023/07/03 06:10:15;;;;;;;21.23;7.60;;;16.60;49.20;;;;;;5079566;28;20148;-82
2023/07/03 06:12:42;;;;;;;20.20;8.20;;;16.50;52.30;;;;;;5075107;28;20187;-84
2023/07/03 06:15:08;;;;;;;21.30;8.40;;;16.50;54.20;;;;;;5086654;28;20220;-82
2023/07/03 06:17:36;;;;;;;23.03;8.17;;;16.60;54.40;;;;;;5083649;28;20176;-82
2023/07/03 06:20:02;;;;;;;19.63;8.40;;;16.70;49.90;;;;;;5064968;28;20197;-86
2023/07/03 06:22:28;;;;;;;23.17;8.40;;;16.80;48.40;;;;;;5081451;28;20249;-85
2023/07/03 06:24:54;;;;;;;21.73;8.40;;;16.60;49.90;;;;;;5088461;28;20171;-82
2023/07/03 06:27:20;;;;;;;14.87;6.90;;;16.70;55.70;;;;;;5090924;28;20204;-82
2023/07/03 06:29:45;;;;;;;19.47;8.13;;;16.50;56.60;;;;;;5093666;28;20169;-82
2023/07/03 06:32:11;;;;;;;22.50;7.93;;;16.60;57.80;;;;;;5092111;28;20176;-84
2023/07/03 06:34:37;;;;;;;20.30;8.57;;;16.60;56.70;;;;;;5090867;28;20186;-82
2023/07/03 06:37:05;;;;;;;20.10;8.20;;;16.60;58.30;;;;;;5079723;28;20177;-84
2023/07/03 06:39:37;;;;;;;21.87;8.37;;;16.60;57.60;;;;;;5074578;28;20168;-84
2023/07/03 06:42:03;;;;;;;19.80;7.83;;;16.60;58.90;;;;;;5077033;28;20196;-82
2023/07/03 06:44:28;;;;;;;19.23;8.13;;;16.60;59.00;;;;;;5080753;28;20183;-83
2023/07/03 06:46:54;;;;;;;16.70;7.70;;;16.70;58.50;;;;;;5087734;28;20152;-82
2023/07/03 06:49:24;;;;;;;23.33;8.40;;;16.80;58.30;;;;;;5083286;28;20179;-83
2023/07/03 06:51:51;;;;;;;21.50;8.50;;;16.60;57.90;;;;;;5077796;28;20197;-83
2023/07/03 06:54:42;;;;;;;18.63;8.10;;;16.60;62.20;;;;;;5079991;28;20163;-85
2023/07/03 06:57:09;;;;;;;20.57;8.30;;;16.70;64.80;;;;;;5081629;28;20168;-84
2023/07/03 06:59:35;;;;;;;22.77;8.30;;;16.60;69.20;;;;;;5080088;28;20185;-84
2023/07/03 07:02:00;;;;;;;17.97;8.30;;;16.50;70.30;;;;;;5074400;28;20661;-85
2023/07/03 07:04:27;;;;;;;20.67;8.03;;;16.50;73.00;;;;;;5077161;28;20602;-85
2023/07/03 07:06:53;;;;;;;21.77;7.77;;;16.60;74.60;;;;;;5077608;28;20175;-85
2023/07/03 07:09:20;;;;;;;20.00;7.87;;;16.60;66.80;;;;;;5079186;28;20197;-84
2023/07/03 07:11:46;;;;;;;22.93;7.63;;;16.80;58.60;;;;;;5076862;28;20188;-85
2023/07/03 07:14:13;;;;;;;18.37;7.47;;;16.70;49.70;;;;;;5074700;28;20168;-86
2023/07/03 07:16:40;;;;;;;20.23;7.33;;;16.80;50.00;;;;;;5076241;28;20653;-83
2023/07/03 07:19:08;;;;;;;19.67;7.47;;;16.80;41.30;;;;;;5077495;28;20161;-85
2023/07/03 07:21:38;;;;;;;13.63;6.80;;;17.10;33.00;;;;;;5077056;28;20169;-88
2023/07/03 07:24:13;;;;;;;18.47;7.63;;;17.10;24.50;;;;;;5078421;28;20473;-84
2023/07/03 07:26:39;;;;;;;15.37;6.70;;;17.20;21.20;;;;;;5077400;28;20200;-85
2023/07/03 07:29:04;;;;;;;18.97;6.93;;;17.30;14.20;;;;;;5076601;28;20270;-86
2023/07/03 07:31:31;;;;;;;16.17;6.93;;;17.40;11.90;;;;;;5077618;28;20180;-85
2023/07/03 07:33:57;;;;;;;16.27;6.80;;;17.40;5.10;;;;;;5079127;28;20175;-85
2023/07/03 07:36:25;;;;;;;15.70;6.97;;;17.50;1.00;;;;;;5079848;28;20208;-84
2023/07/03 07:38:56;;;;;;;17.70;8.60;;;17.60;1.00;;;;;;5088320;28;20160;-83
2023/07/03 07:41:24;;;;;;;16.47;9.27;;;17.60;1.00;;;;;;5097381;28;20180;-82
2023/07/03 07:43:51;;;;;;;13.73;7.00;;;17.50;1.00;;;;;;5096500;28;20189;-83
2023/07/03 07:46:18;;;;;;;21.10;10.03;;;17.60;1.00;;;;;;5096491;28;20167;-81
2023/07/03 07:48:46;;;;;;;15.27;6.63;;;17.50;1.00;;;;;;5093212;28;20199;-85
2023/07/03 07:51:13;;;;;;;13.17;6.33;;;17.60;1.00;;;;;;5095587;28;20169;-85
2023/07/03 07:53:39;;;;;;;15.87;6.33;;;17.60;1.00;;;;;;5103929;28;20180;-82
2023/07/03 07:56:07;;;;;;;16.23;6.53;;;17.60;1.00;;;;;;5098434;28;20167;-81
2023/07/03 07:58:33;;;;;;;16.97;6.50;;;17.80;1.00;;;;;;5095559;28;20183;-83
2023/07/03 08:01:00;;;;;;;16.17;7.00;;;17.90;1.00;;;;;;5094135;28;20194;-85
2023/07/03 08:03:29;;;;;;;13.17;6.93;;;18.00;1.00;;;;;;5085523;28;20231;-85
2023/07/03 08:06:04;;;;;;;17.60;7.00;;;18.20;1.00;;;;;;5078205;28;20272;-86
2023/07/03 08:08:30;;;;;;;20.93;10.33;;;18.10;1.00;;;;;;5077314;28;20180;-86
2023/07/03 08:10:59;;;;;;;15.87;6.00;;;18.10;1.00;;;;;;5077892;28;20556;-83
2023/07/03 08:13:25;;;;;;;13.43;5.40;;;18.20;1.00;;;;;;5077022;28;20213;-85
2023/07/03 08:15:51;;;;;;;12.83;5.17;;;18.40;1.00;;;;;;5081774;28;20247;-85
2023/07/03 08:18:18;;;;;;;15.63;5.07;;;18.40;1.00;;;;;;5094079;28;20229;-83
2023/07/03 08:20:44;;;;;;;15.00;5.20;;;18.50;1.00;;;;;;5098003;28;20181;-82
2023/07/03 08:23:11;;;;;;;14.37;5.03;;;18.40;1.00;;;;;;5095049;28;20304;-86
2023/07/03 08:25:37;;;;;;;9.93;4.17;;;18.30;1.00;;;;;;5091830;28;20185;-86
2023/07/03 08:28:06;;;;;;;13.20;4.67;;;18.20;1.00;;;;;;5079899;28;20554;-82
2023/07/03 08:30:33;;;;;;;16.13;7.33;;;18.00;1.00;;;;;;5086990;28;20189;-84
2023/07/03 08:32:59;;;;;;;15.07;5.63;;;17.90;1.00;;;;;;5087437;28;20192;-86
2023/07/03 08:35:24;;;;;;;15.47;6.60;;;18.00;1.00;;;;;;5085124;28;20176;-86
2023/07/03 08:37:52;;;;;;;16.60;7.27;;;18.00;1.00;;;;;;5086250;28;20176;-85
2023/07/03 08:40:20;;;;;;;15.50;5.80;;;18.10;1.00;;;;;;5080625;28;20173;-85
2023/07/03 08:42:58;;;;;;;11.47;4.93;;;18.20;1.00;;;;;;5087444;28;20203;-84
2023/07/03 08:45:37;;;;;;;15.63;4.57;;;18.30;1.00;;;;;;5084879;28;20193;-83
2023/07/03 08:48:14;;;;;;;13.30;5.27;;;18.60;1.00;;;;;;5084592;28;20301;-86
2023/07/03 08:50:45;;;;;;;12.63;4.40;;;18.50;1.00;;;;;;5080128;28;20175;-86
2023/07/03 08:53:15;;;;;;;11.70;4.20;;;18.40;1.00;;;;;;5079489;28;20180;-84
2023/07/03 08:55:45;;;;;;;16.53;4.63;;;18.50;1.00;;;;;;5076172;28;20176;-87
2023/07/03 08:58:11;;;;;;;9.90;4.33;;;18.60;1.00;;;;;;5073702;28;20176;-86
2023/07/03 09:01:08;;;;;;;14.83;4.10;;;18.80;1.00;;;;;;5074141;28;20686;-86
2023/07/03 09:04:01;;;;;;;19.20;8.37;;;18.90;1.00;;;;;;5071772;28;20227;-87
2023/07/03 09:06:47;;;;;;;14.03;4.17;;;18.60;1.00;;;;;;5074294;28;20215;-86
2023/07/03 09:09:23;;;;;;;26.70;13.20;;;18.60;1.00;;;;;;5073534;28;20211;-86
2023/07/03 09:11:59;;;;;;;13.00;5.13;;;18.70;1.00;;;;;;5073580;28;20199;-87
2023/07/03 09:14:28;;;;;;;14.03;4.83;;;18.90;1.00;;;;;;5074346;28;20581;-85
2023/07/03 09:16:55;;;;;;;11.70;5.00;;;19.00;1.00;;;;;;5075497;28;20166;-87
2023/07/03 09:19:25;;;;;;;13.93;5.23;;;18.90;1.00;;;;;;5075577;28;20185;-85
2023/07/03 09:21:55;;;;;;;17.97;5.03;;;18.70;1.00;;;;;;5056452;28;20213;-83
2023/07/03 09:24:40;;;;;;;11.83;4.57;;;18.70;1.00;;;;;;5076209;28;20210;-85
2023/07/03 09:27:22;;;;;;;13.17;6.43;;;18.70;1.00;;;;;;5074488;28;20199;-86
2023/07/03 09:29:48;;;;;;;14.80;7.63;;;19.00;1.00;;;;;;5073820;28;20636;-84
2023/07/03 09:32:29;;;;;;;11.23;4.53;;;19.30;1.00;;;;;;5073880;28;20173;-85
2023/07/03 09:35:11;;;;;;;21.20;9.50;;;19.30;1.00;;;;;;5074634;28;20384;-86
2023/07/03 09:37:39;;;;;;;13.40;4.90;;;19.40;1.00;;;;;;5074282;28;20180;-84
2023/07/03 09:40:09;;;;;;;12.80;4.27;;;19.50;1.00;;;;;;5076884;28;20198;-83
2023/07/03 09:42:35;;;;;;;13.30;4.20;;;19.40;1.00;;;;;;5073991;28;20230;-84
2023/07/03 09:45:02;;;;;;;11.20;4.27;;;19.50;1.00;;;;;;5074046;28;20186;-86
2023/07/03 09:47:29;;;;;;;10.73;4.17;;;19.20;1.00;;;;;;5072517;28;20177;-84
2023/07/03 09:50:03;;;;;;;12.23;4.67;;;19.20;1.00;;;;;;5076183;28;20635;-86
2023/07/03 09:52:29;;;;;;;10.13;4.60;;;19.20;1.00;;;;;;5078903;28;20178;-86
2023/07/03 09:55:00;;;;;;;15.77;4.53;;;19.10;1.00;;;;;;5083951;28;20223;-86
2023/07/03 09:57:27;;;;;;;10.53;3.03;;;19.10;1.00;;;;;;5098367;28;20684;-83
2023/07/03 09:59:54;;;;;;;10.47;3.37;;;19.20;99.90;;;;;;5099087;28;20646;-86
2023/07/03 10:02:22;;;;;;;10.33;3.80;;;19.20;99.90;;;;;;5097706;28;20207;-86
2023/07/03 10:04:48;;;;;;;8.60;3.47;;;19.20;99.90;;;;;;5099118;28;20168;-86
2023/07/03 10:07:18;;;;;;;10.03;3.30;;;19.20;99.90;;;;;;5098512;28;20179;-85
2023/07/03 10:09:46;;;;;;;7.53;2.87;;;19.30;99.90;;;;;;5099844;28;20178;-86
2023/07/03 10:12:36;;;;;;;10.40;3.20;;;19.30;99.90;;;;;;5097130;28;20242;-84
2023/07/03 10:15:17;;;;;;;12.20;4.37;;;19.20;99.90;;;;;;5099734;28;20537;-86
2023/07/03 10:17:50;;;;;;;9.43;3.43;;;19.30;99.90;;;;;;5107669;28;20184;-83
2023/07/03 10:20:46;;;;;;;8.10;4.50;;;19.20;99.90;;;;;;5104304;28;20176;-86
2023/07/03 10:23:27;;;;;;;9.90;3.70;;;19.10;99.90;;;;;;5086275;28;20625;-83
2023/07/03 10:25:57;;;;;;;9.70;4.13;;;19.00;99.90;;;;;;5098814;28;20239;-85
2023/07/03 10:28:41;;;;;;;9.60;3.23;;;19.00;99.90;;;;;;5097940;28;20201;-87
2023/07/03 10:31:21;;;;;;;11.40;3.93;;;19.20;99.90;;;;;;5099968;28;20194;-85
2023/07/03 10:33:50;;;;;;;8.40;2.77;;;19.50;99.90;;;;;;5105552;28;20506;-85
2023/07/03 10:36:24;;;;;;;10.00;3.63;;;19.50;99.90;;;;;;5100472;28;20182;-83
2023/07/03 10:39:00;;;;;;;8.90;3.60;;;19.60;99.90;;;;;;5098094;28;20254;-84
2023/07/03 10:41:38;;;;;;;12.27;3.07;;;19.80;99.90;;;;;;5098255;28;20631;-87
2023/07/03 10:44:11;;;;;;;12.77;3.30;;;19.90;99.90;;;;;;5097911;28;20189;-87
2023/07/03 10:46:42;;;;;;;8.50;3.30;;;19.90;99.90;;;;;;5097879;28;20182;-86
2023/07/03 10:49:16;;;;;;;11.07;3.13;;;19.80;99.90;;;;;;5097842;28;20167;-85
2023/07/03 10:52:10;;;;;;;9.80;2.90;;;19.70;99.90;;;;;;5096658;28;20171;-84
2023/07/03 10:54:55;;;;;;;9.97;3.70;;;19.70;99.90;;;;;;5087420;28;20668;-87
2023/07/03 10:57:32;;;;;;;10.13;3.27;;;19.80;99.90;;;;;;5096526;28;20182;-85
2023/07/03 11:00:06;;;;;;;10.10;3.40;;;19.80;99.90;;;;;;5096913;28;20175;-86
2023/07/03 11:02:37;;;;;;;9.60;3.57;;;19.60;99.90;;;;;;5096012;28;20208;-86
2023/07/03 11:05:15;;;;;;;12.50;3.13;;;19.50;99.90;;;;;;5097364;28;20183;-87
2023/07/03 11:07:50;;;;;;;14.17;4.07;;;19.30;99.90;;;;;;5097461;28;20182;-85
2023/07/03 11:10:22;;;;;;;9.37;3.83;;;19.20;99.90;;;;;;5098183;28;20165;-83
2023/07/03 11:13:18;;;;;;;13.03;3.50;;;19.30;99.90;;;;;;5097385;28;20178;-85
2023/07/03 11:16:05;;;;;;;11.50;3.47;;;19.50;99.90;;;;;;5100159;28;20171;-86
2023/07/03 11:18:56;;;;;;;12.07;3.00;;;20.10;99.90;;;;;;5116521;28;20219;-82
2023/07/03 11:21:43;;;;;;;6.20;2.33;;;20.20;99.90;;;;;;5117913;28;20183;-83
2023/07/03 11:24:15;;;;;;;7.43;2.90;;;20.20;99.90;;;;;;5108364;28;20203;-83
2023/07/03 11:26:52;;;;;;;7.73;3.20;;;20.10;99.90;;;;;;5108563;28;20187;-85
2023/07/03 11:29:19;;;;;;;8.10;3.10;;;19.80;99.90;;;;;;5107361;28;20175;-84
2023/07/03 11:31:46;;;;;;;11.27;3.23;;;19.70;99.90;;;;;;5111323;28;20159;-81
2023/07/03 11:34:15;;;;;;;9.43;3.20;;;19.80;99.90;;;;;;5110050;28;20532;-83
2023/07/03 11:36:51;;;;;;;9.53;2.70;;;19.90;99.90;;;;;;5113054;28;20182;-82
2023/07/03 11:39:21;;;;;;;11.87;2.73;;;20.10;82.60;;;;;;5114975;28;20175;-85
2023/07/03 11:42:00;;;;;;;8.50;2.57;;;20.20;1.00;;;;;;5118288;28;20196;-83
2023/07/03 11:44:43;;;;;;;7.10;2.10;;;20.30;1.00;;;;;;5117762;28;20215;-83
2023/07/03 11:47:13;;;;;;;9.23;2.50;;;20.40;1.00;;;;;;5110138;28;20195;-84
2023/07/03 11:49:57;;;;;;;14.03;5.10;;;20.60;1.00;;;;;;5112181;28;20163;-85
2023/07/03 11:52:35;;;;;;;9.87;3.33;;;20.60;99.90;;;;;;5098054;28;20164;-87
2023/07/03 11:55:33;;;;;;;9.67;3.10;;;20.60;68.40;;;;;;5096983;28;20739;-86
2023/07/03 11:58:01;;;;;;;8.83;2.60;;;20.40;1.00;;;;;;5096872;28;20160;-87
2023/07/03 12:00:29;;;;;;;7.37;2.03;;;20.40;1.00;;;;;;5098018;28;20168;-84
2023/07/03 12:03:03;;;;;;;7.87;2.27;;;20.50;99.90;;;;;;5095433;28;20336;-87
2023/07/03 12:05:50;;;;;;;8.40;2.63;;;20.60;99.90;;;;;;5095266;28;20215;-87
2023/07/03 12:08:19;;;;;;;11.90;3.50;;;20.50;99.90;;;;;;5096413;28;20179;-86
2023/07/03 12:10:52;;;;;;;9.30;4.57;;;20.50;1.00;;;;;;5095467;28;20223;-87
2023/07/03 12:13:43;;;;;;;14.07;4.17;;;20.50;99.90;;;;;;5096326;28;20192;-85
2023/07/03 12:16:22;;;;;;;11.33;6.10;;;20.70;1.00;;;;;;5099481;28;20172;-87
2023/07/03 12:19:16;;;;;;;11.93;4.30;;;20.90;99.90;;;;;;5103763;28;20263;-89
2023/07/03 12:21:49;;;;;;;12.67;3.40;;;20.90;1.00;;;;;;5102852;28;20184;-86
2023/07/03 12:24:27;;;;;;;9.40;3.50;;;20.90;99.90;;;;;;5105621;28;20416;-85
2023/07/03 12:27:00;;;;;;;11.03;3.10;;;21.10;99.90;;;;;;5107405;28;20215;-88
2023/07/03 12:29:27;;;;;;;9.30;3.13;;;21.20;99.90;;;;;;5103882;28;20306;-81
2023/07/03 12:32:06;;;;;;;8.07;2.83;;;20.90;1.00;;;;;;5098306;28;20185;-85
2023/07/03 12:34:34;;;;;;;7.47;3.10;;;20.90;19.60;;;;;;5105756;28;20167;-85
2023/07/03 12:37:04;;;;;;;9.07;2.83;;;20.60;1.00;;;;;;5106520;28;20175;-83
2023/07/03 12:39:30;;;;;;;9.83;3.67;;;20.50;99.90;;;;;;5085590;28;20187;-84
2023/07/03 12:42:11;;;;;;;26.17;16.97;;;20.50;1.00;;;;;;5102103;28;20179;-85
2023/07/03 12:44:37;;;;;;;11.80;5.17;;;20.60;1.00;;;;;;5107144;28;20180;-81
2023/07/03 12:47:08;;;;;;;11.33;3.57;;;20.70;1.00;;;;;;5112889;28;20176;-82
2023/07/03 12:49:47;;;;;;;7.80;2.97;;;20.90;1.00;;;;;;5110784;28;20177;-85
2023/07/03 12:52:16;;;;;;;8.30;3.00;;;21.00;1.00;;;;;;5109661;28;20534;-85
2023/07/03 12:54:41;;;;;;;12.83;3.63;;;20.80;1.00;;;;;;5096484;28;20248;-81
2023/07/03 12:57:09;;;;;;;11.53;3.73;;;20.90;1.00;;;;;;5096860;28;20175;-86